createdAt,value
2022-11-20T00:01:20.867Z,100.00
2022-11-20T00:03:48.100Z,99.87
2022-11-20T00:06:17.671Z,99.48
2022-11-20T00:08:45.147Z,99.05
2022-11-20T00:11:17.419Z,99.62
2022-11-20T00:13:48.338Z,100.00
2022-11-20T00:16:17.264Z,98.68
2022-11-20T00:18:45.004Z,96.54
2022-11-20T00:21:23.589Z,97.73
2022-11-20T00:23:51.268Z,100.00
2022-11-20T00:26:20.207Z,99.71
2022-11-20T00:28:55.464Z,94.69
2022-11-20T00:31:22.762Z,96.22
2022-11-20T00:33:49.710Z,94.69
2022-11-20T00:36:18.999Z,90.63
2022-11-20T00:38:47.205Z,91.45
2022-11-20T00:41:17.169Z,90.85
2022-11-20T00:43:44.375Z,89.65
2022-11-20T00:46:14.693Z,88.73
2022-11-20T00:48:41.982Z,89.52
2022-11-20T00:51:09.254Z,88.85
2022-11-20T00:53:36.112Z,88.39
2022-11-20T00:56:03.823Z,88.42
2022-11-20T00:58:34.189Z,87.10
2022-11-20T01:01:26.980Z,85.91
2022-11-20T01:03:55.395Z,86.08
2022-11-20T01:06:25.924Z,91.76
2022-11-20T01:08:57.036Z,91.41
2022-11-20T01:11:26.349Z,89.10
2022-11-20T01:13:54.340Z,88.99
2022-11-20T01:16:26.486Z,84.50
2022-11-20T01:18:59.149Z,85.06
2022-11-20T01:21:29.160Z,86.42
2022-11-20T01:23:56.120Z,88.94
2022-11-20T01:26:25.562Z,88.45
2022-11-20T01:28:59.383Z,87.56
2022-11-20T01:31:30.152Z,87.15
2022-11-20T01:33:59.052Z,87.24
2022-11-20T01:36:27.946Z,85.09
2022-11-20T01:38:59.109Z,84.52
2022-11-20T01:41:46.218Z,85.06
2022-11-20T01:44:16.149Z,86.16
2022-11-20T01:46:58.044Z,83.47
2022-11-20T01:49:42.993Z,84.98
2022-11-20T01:52:18.627Z,83.54
2022-11-20T01:54:51.728Z,86.09
2022-11-20T01:57:19.549Z,91.95
2022-11-20T01:59:51.479Z,91.20
2022-11-20T02:02:18.422Z,89.83
2022-11-20T02:04:45.699Z,89.67
2022-11-20T02:07:13.118Z,90.92
2022-11-20T02:09:40.986Z,89.30
2022-11-20T02:12:27.936Z,86.71
2022-11-20T02:14:54.824Z,86.37
2022-11-20T02:17:21.553Z,87.69
2022-11-20T02:19:50.491Z,91.67
2022-11-20T02:22:30.451Z,93.97
2022-11-20T02:24:58.488Z,92.99
2022-11-20T02:27:25.373Z,93.98
2022-11-20T02:29:55.281Z,95.45
2022-11-20T02:32:34.081Z,95.34
2022-11-20T02:35:10.529Z,97.39
2022-11-20T02:37:41.073Z,98.79
2022-11-20T02:40:08.764Z,99.80
2022-11-20T02:42:36.763Z,100.00
2022-11-20T02:45:04.729Z,99.09
2022-11-20T02:47:31.787Z,97.35
2022-11-20T02:49:58.828Z,100.00
2022-11-20T02:52:26.305Z,99.51
2022-11-20T02:54:53.297Z,99.17
2022-11-20T02:57:20.182Z,100.00
2022-11-20T02:59:47.050Z,97.09
2022-11-20T03:02:13.932Z,95.92
2022-11-20T03:04:40.767Z,91.68
2022-11-20T03:07:08.551Z,88.47
2022-11-20T03:09:35.454Z,83.75
2022-11-20T03:12:02.164Z,84.08
2022-11-20T03:14:29.421Z,86.33
2022-11-20T03:16:57.077Z,82.90
2022-11-20T03:19:24.288Z,81.12
2022-11-20T03:21:51.147Z,80.14
2022-11-20T03:24:17.841Z,85.44
2022-11-20T03:26:44.689Z,84.74
2022-11-20T03:29:11.328Z,80.44
2022-11-20T03:31:43.437Z,80.78
2022-11-20T03:34:11.890Z,82.04
2022-11-20T03:36:40.202Z,84.31
2022-11-20T03:39:07.638Z,87.01
2022-11-20T03:41:38.810Z,88.15
2022-11-20T03:44:07.899Z,90.29
2022-11-20T03:46:34.896Z,88.90
2022-11-20T03:49:07.744Z,87.91
2022-11-20T03:51:36.911Z,91.77
2022-11-20T03:54:06.797Z,90.97
2022-11-20T03:56:35.831Z,89.85
2022-11-20T03:59:04.705Z,86.12
2022-11-20T04:01:34.169Z,86.55
2022-11-20T04:04:01.625Z,87.21
2022-11-20T04:06:36.563Z,86.88
2022-11-20T04:09:03.564Z,85.83
2022-11-20T04:11:32.353Z,82.85
2022-11-20T04:14:01.423Z,79.10
2022-11-20T04:16:31.292Z,76.53
2022-11-20T04:19:00.306Z,80.23
2022-11-20T04:21:27.586Z,79.96
2022-11-20T04:23:55.064Z,83.66
2022-11-20T04:26:23.376Z,80.44
2022-11-20T04:28:50.550Z,77.92
2022-11-20T04:31:19.562Z,72.70
2022-11-20T04:33:46.599Z,71.64
2022-11-20T04:36:15.891Z,70.79
2022-11-20T04:38:45.151Z,68.87
2022-11-20T04:41:19.656Z,67.46
2022-11-20T04:43:53.548Z,66.07
2022-11-20T04:46:21.817Z,67.30
2022-11-20T04:48:49.705Z,66.61
2022-11-20T04:51:16.590Z,67.88
2022-11-20T04:53:43.538Z,68.07
2022-11-20T04:56:12.750Z,68.37
2022-11-20T04:58:40.267Z,65.95
2022-11-20T05:01:10.189Z,61.94
2022-11-20T05:03:41.991Z,59.15
2022-11-20T05:06:10.444Z,57.98
2022-11-20T05:08:37.300Z,59.17
2022-11-20T05:11:06.340Z,56.53
2022-11-20T05:13:33.299Z,55.99
2022-11-20T05:16:09.471Z,53.25
2022-11-20T05:18:37.574Z,55.44
2022-11-20T05:21:04.683Z,57.15
2022-11-20T05:23:32.891Z,57.08
2022-11-20T05:26:00.088Z,58.16
2022-11-20T05:28:28.585Z,55.13
2022-11-20T05:30:55.531Z,59.82
2022-11-20T05:33:22.776Z,59.55
2022-11-20T05:35:50.082Z,59.67
2022-11-20T05:38:17.321Z,60.93
2022-11-20T05:40:44.259Z,61.50
2022-11-20T05:43:11.137Z,60.20
2022-11-20T05:45:38.232Z,62.04
2022-11-20T05:48:05.288Z,62.97
2022-11-20T05:50:35.253Z,60.23
2022-11-20T05:53:02.137Z,57.55
2022-11-20T05:55:29.233Z,59.05
2022-11-20T05:57:56.357Z,56.94
2022-11-20T06:00:23.822Z,58.36
2022-11-20T06:02:50.787Z,61.06
2022-11-20T06:05:17.720Z,67.97
2022-11-20T06:07:44.613Z,64.30
2022-11-20T06:10:11.559Z,64.64
2022-11-20T06:12:38.427Z,63.30
2022-11-20T06:15:06.875Z,60.92
2022-11-20T06:17:33.717Z,60.66
2022-11-20T06:20:00.641Z,58.71
2022-11-20T06:22:27.484Z,59.04
2022-11-20T06:24:54.355Z,58.56
2022-11-20T06:27:21.193Z,54.77
2022-11-20T06:29:53.757Z,54.91
2022-11-20T06:32:20.644Z,56.58
2022-11-20T06:34:47.536Z,55.29
2022-11-20T06:37:14.441Z,56.36
2022-11-20T06:39:48.422Z,55.67
2022-11-20T06:42:15.312Z,56.42
2022-11-20T06:44:42.177Z,55.08
2022-11-20T06:47:09.015Z,54.71
2022-11-20T06:49:41.694Z,55.42
2022-11-20T06:52:08.530Z,54.91
2022-11-20T06:54:35.186Z,55.63
2022-11-20T06:57:02.077Z,56.59
2022-11-20T06:59:28.938Z,55.56
2022-11-20T07:01:55.808Z,56.06
2022-11-20T07:04:22.678Z,55.49
2022-11-20T07:06:49.624Z,56.69
2022-11-20T07:09:17.552Z,55.78
2022-11-20T07:11:44.400Z,55.31
2022-11-20T07:14:11.565Z,54.10
2022-11-20T07:16:38.455Z,55.93
2022-11-20T07:19:05.356Z,55.46
2022-11-20T07:21:32.186Z,56.97
2022-11-20T07:23:58.843Z,52.30
2022-11-20T07:26:25.722Z,53.22
2022-11-20T07:28:53.558Z,53.04
2022-11-20T07:31:20.434Z,54.68
2022-11-20T07:33:47.937Z,55.27
2022-11-20T07:36:14.817Z,55.59
2022-11-20T07:38:41.707Z,55.31
2022-11-20T07:41:08.543Z,54.36
2022-11-20T07:43:40.828Z,53.09
2022-11-20T07:46:08.257Z,54.33
2022-11-20T07:48:35.171Z,55.59
2022-11-20T07:51:02.145Z,55.21
2022-11-20T07:53:29.003Z,53.25
2022-11-20T07:55:55.890Z,52.31
2022-11-20T07:58:23.097Z,53.17
2022-11-20T08:00:50.105Z,54.60
2022-11-20T08:03:21.661Z,54.48
2022-11-20T08:05:51.452Z,55.22
2022-11-20T08:08:18.287Z,54.98
2022-11-20T08:10:44.967Z,56.73
2022-11-20T08:13:30.329Z,57.04
2022-11-20T08:15:57.168Z,57.89
2022-11-20T08:18:31.356Z,57.56
2022-11-20T08:21:02.514Z,56.91
2022-11-20T08:23:29.379Z,58.33
2022-11-20T08:25:56.227Z,55.71
2022-11-20T08:28:23.141Z,55.01
2022-11-20T08:30:51.379Z,57.84
2022-11-20T08:33:19.237Z,57.13
2022-11-20T08:35:46.314Z,55.79
2022-11-20T08:38:13.189Z,56.50
2022-11-20T08:40:41.088Z,58.04
2022-11-20T08:43:07.960Z,57.97
2022-11-20T08:45:35.532Z,58.33
2022-11-20T08:48:03.603Z,58.52
2022-11-20T08:50:33.488Z,59.92
2022-11-20T08:53:05.684Z,59.21
2022-11-20T08:55:32.649Z,59.96
2022-11-20T08:57:59.496Z,58.01
2022-11-20T09:00:28.449Z,59.18
2022-11-20T09:02:55.520Z,59.41
2022-11-20T09:05:22.399Z,56.58
2022-11-20T09:07:49.258Z,58.41
2022-11-20T09:10:23.974Z,54.68
2022-11-20T09:12:53.089Z,55.94
2022-11-20T09:15:20.770Z,57.28
2022-11-20T09:17:54.676Z,56.25
2022-11-20T09:20:22.033Z,57.23
2022-11-20T09:22:49.384Z,55.78
2022-11-20T09:25:16.501Z,57.91
2022-11-20T09:27:45.216Z,58.22
2022-11-20T09:30:13.050Z,57.17
2022-11-20T09:32:40.658Z,55.91
2022-11-20T09:35:07.970Z,57.15
2022-11-20T09:37:34.918Z,58.34
2022-11-20T09:40:02.025Z,56.88
2022-11-20T09:42:46.815Z,58.00
2022-11-20T09:45:23.711Z,59.70
2022-11-20T09:48:12.233Z,59.07
2022-11-20T09:50:49.791Z,59.96
2022-11-20T09:53:22.491Z,57.22
2022-11-20T09:55:49.782Z,57.55
2022-11-20T09:58:41.408Z,59.41
2022-11-20T10:01:19.620Z,59.39
2022-11-20T10:03:57.776Z,58.08
2022-11-20T10:06:31.701Z,56.79
2022-11-20T10:09:13.680Z,57.05
2022-11-20T10:12:03.285Z,56.59
2022-11-20T10:15:12.455Z,61.16
2022-11-20T10:18:07.232Z,60.80
2022-11-20T10:21:17.703Z,60.90
2022-11-20T10:24:00.507Z,61.17
2022-11-20T10:26:32.929Z,59.80
2022-11-20T10:29:20.200Z,60.08
2022-11-20T10:31:50.927Z,62.14
2022-11-20T10:34:23.476Z,63.10
2022-11-20T10:36:56.960Z,64.92
2022-11-20T10:39:35.449Z,63.50
2022-11-20T10:42:02.789Z,67.35
2022-11-20T10:44:53.898Z,71.21
2022-11-20T10:47:23.372Z,72.59
2022-11-20T10:49:54.937Z,71.18
2022-11-20T10:52:44.188Z,70.85
2022-11-20T10:55:37.327Z,69.50
2022-11-20T10:58:35.124Z,69.81
2022-11-20T11:01:15.940Z,63.77
2022-11-20T11:03:44.555Z,64.48
2022-11-20T11:06:34.269Z,62.80
2022-11-20T11:09:10.139Z,65.09
2022-11-20T11:11:37.245Z,62.09
2022-11-20T11:14:15.798Z,56.61
2022-11-20T11:16:59.035Z,57.31
2022-11-20T11:19:26.304Z,59.63
2022-11-20T11:21:56.034Z,59.23
2022-11-20T11:24:42.610Z,57.50
2022-11-20T11:27:18.976Z,59.21
2022-11-20T11:29:47.057Z,60.09
2022-11-20T11:32:21.756Z,60.98
2022-11-20T11:35:28.160Z,60.08
2022-11-20T11:38:04.060Z,57.63
2022-11-20T11:40:33.668Z,57.26
2022-11-20T11:43:03.955Z,58.79
2022-11-20T11:45:30.919Z,62.38
2022-11-20T11:48:04.368Z,57.47
2022-11-20T11:50:32.215Z,59.83
2022-11-20T11:53:14.462Z,55.30
2022-11-20T11:55:56.022Z,57.04
2022-11-20T11:58:36.127Z,59.04
2022-11-20T12:01:30.613Z,60.17
2022-11-20T12:04:05.952Z,60.21
2022-11-20T12:06:34.364Z,61.05
2022-11-20T12:09:04.589Z,60.14
2022-11-20T12:11:48.267Z,56.27
2022-11-20T12:14:25.179Z,56.04
2022-11-20T12:16:53.952Z,57.23
2022-11-20T12:19:21.420Z,55.15
2022-11-20T12:22:09.467Z,55.17
2022-11-20T12:24:36.245Z,53.31
2022-11-20T12:27:03.038Z,54.98
2022-11-20T12:29:47.733Z,54.95
2022-11-20T12:32:17.586Z,54.08
2022-11-20T12:35:01.588Z,54.96
2022-11-20T12:37:28.401Z,55.74
2022-11-20T12:40:00.158Z,53.86
2022-11-20T12:43:08.780Z,55.30
2022-11-20T12:45:58.028Z,55.69
2022-11-20T12:48:45.006Z,57.23
2022-11-20T12:51:31.762Z,55.85
2022-11-20T12:54:13.775Z,56.88
2022-11-20T12:56:51.490Z,57.12
2022-11-20T12:59:30.197Z,54.00
2022-11-20T13:02:02.653Z,52.79
2022-11-20T13:04:35.495Z,51.85
2022-11-20T13:07:04.425Z,52.96
2022-11-20T13:09:31.417Z,53.79
2022-11-20T13:12:06.673Z,51.03
2022-11-20T13:14:41.895Z,53.96
2022-11-20T13:17:18.346Z,51.57
2022-11-20T13:19:52.715Z,50.44
2022-11-20T13:22:29.485Z,51.94
2022-11-20T13:24:56.764Z,52.91
2022-11-20T13:27:24.427Z,52.20
2022-11-20T13:30:16.391Z,54.81
2022-11-20T13:32:50.444Z,51.72
2022-11-20T13:35:29.645Z,52.79
2022-11-20T13:38:09.620Z,50.49
2022-11-20T13:40:56.207Z,50.49
2022-11-20T13:43:38.243Z,51.51
2022-11-20T13:46:10.045Z,50.45
2022-11-20T13:48:43.334Z,51.92
2022-11-20T13:51:31.959Z,51.91
2022-11-20T13:54:18.935Z,51.90
2022-11-20T13:56:51.619Z,52.35
2022-11-20T13:59:30.066Z,53.76
2022-11-20T14:01:57.044Z,53.79
2022-11-20T14:04:44.808Z,54.38
2022-11-20T14:07:12.041Z,54.51
2022-11-20T14:09:40.096Z,54.18
2022-11-20T14:12:20.998Z,52.64
2022-11-20T14:14:53.555Z,52.95
2022-11-20T14:17:23.708Z,53.11
2022-11-20T14:19:54.238Z,51.27
2022-11-20T14:22:28.089Z,51.99
2022-11-20T14:25:08.109Z,52.67
2022-11-20T14:27:38.191Z,52.30
2022-11-20T14:30:05.889Z,51.38
2022-11-20T14:32:33.135Z,52.29
2022-11-20T14:35:04.463Z,53.20
2022-11-20T14:37:34.966Z,53.50
2022-11-20T14:40:01.926Z,54.19
2022-11-20T14:42:29.685Z,53.68
2022-11-20T14:44:58.997Z,54.55
2022-11-20T14:47:31.308Z,53.71
2022-11-20T14:49:59.222Z,54.09
2022-11-20T14:52:28.582Z,55.25
2022-11-20T14:54:57.464Z,56.77
2022-11-20T14:57:35.716Z,56.70
2022-11-20T15:00:05.480Z,58.39
2022-11-20T15:02:32.941Z,57.08
2022-11-20T15:05:02.803Z,57.64
2022-11-20T15:07:33.151Z,58.16
2022-11-20T15:10:12.505Z,59.37
2022-11-20T15:12:52.076Z,59.18
2022-11-20T15:15:36.915Z,60.15
2022-11-20T15:18:04.819Z,59.80
2022-11-20T15:20:33.556Z,59.11
2022-11-20T15:23:00.465Z,57.41
2022-11-20T15:25:27.479Z,59.51
2022-11-20T15:27:56.869Z,60.47
2022-11-20T15:30:26.010Z,59.16
2022-11-20T15:32:52.916Z,59.77
2022-11-20T15:37:55.082Z,58.71
2022-11-20T15:40:21.944Z,54.71
2022-11-20T15:43:08.186Z,56.77
2022-11-20T15:45:46.706Z,56.04
2022-11-20T15:48:22.519Z,56.84
2022-11-20T15:50:55.527Z,57.50
2022-11-20T15:53:22.513Z,57.38
2022-11-20T15:55:49.763Z,57.08
2022-11-20T15:58:18.155Z,56.37
2022-11-20T16:03:20.815Z,54.44
2022-11-20T16:05:48.087Z,55.09
2022-11-20T16:10:56.570Z,58.21
2022-11-20T16:13:42.049Z,58.25
2022-11-20T16:16:21.907Z,58.60
2022-11-20T16:30:46.149Z,56.84
2022-11-20T16:33:15.213Z,56.59
2022-11-20T16:38:12.393Z,54.15
2022-11-20T16:43:54.331Z,54.80
2022-11-20T16:46:23.408Z,53.02
2022-11-20T16:48:55.327Z,53.01
2022-11-20T16:51:23.061Z,53.87
2022-11-20T16:53:51.183Z,55.23
2022-11-20T16:56:20.213Z,54.90
2022-11-20T16:58:48.821Z,55.69
2022-11-20T17:01:18.698Z,55.29
2022-11-20T17:03:46.829Z,53.50
2022-11-20T17:06:15.894Z,53.69
2022-11-20T17:08:43.048Z,52.93
2022-11-20T17:11:14.466Z,52.78
2022-11-20T17:13:41.463Z,51.76
2022-11-20T17:16:13.408Z,52.91
2022-11-20T17:18:41.178Z,53.94
2022-11-20T17:21:08.419Z,54.52
2022-11-20T17:23:36.934Z,55.22
2022-11-20T17:26:05.734Z,57.73
2022-11-20T17:28:33.143Z,58.06
2022-11-20T17:31:04.493Z,57.81
2022-11-20T17:33:31.531Z,56.14
2022-11-20T17:35:58.362Z,54.86
2022-11-20T17:38:25.091Z,55.27
2022-11-20T17:40:52.013Z,52.67
2022-11-20T17:43:19.103Z,52.47
2022-11-20T17:45:46.603Z,54.95
2022-11-20T17:48:13.546Z,57.23
2022-11-20T17:50:40.457Z,59.02
2022-11-20T17:53:07.755Z,59.23
2022-11-20T17:55:55.946Z,58.79
2022-11-20T17:58:23.099Z,58.88
2022-11-20T18:00:49.998Z,61.41
2022-11-20T18:03:16.694Z,59.51
2022-11-20T18:05:46.349Z,60.74
2022-11-20T18:08:13.246Z,61.95
2022-11-20T18:10:40.277Z,61.33
2022-11-20T18:13:07.137Z,61.47
2022-11-20T18:15:34.028Z,62.55
2022-11-20T18:18:00.878Z,61.68
2022-11-20T18:20:30.286Z,66.17
2022-11-20T18:22:59.016Z,67.41
2022-11-20T18:25:25.885Z,64.88
2022-11-20T18:27:52.775Z,64.05
2022-11-20T18:30:19.740Z,63.82
2022-11-20T18:32:46.616Z,64.29
2022-11-20T18:35:13.502Z,66.21
2022-11-20T18:37:41.009Z,67.41
2022-11-20T18:40:08.674Z,67.72
2022-11-20T18:42:55.786Z,66.38
2022-11-20T18:45:22.631Z,69.33
2022-11-20T18:47:49.422Z,67.05
2022-11-20T18:50:17.327Z,66.45
2022-11-20T18:52:48.070Z,66.24
2022-11-20T18:55:15.243Z,66.45
2022-11-20T18:57:42.176Z,60.39
2022-11-20T19:00:10.378Z,58.00
2022-11-20T19:02:42.043Z,59.71
2022-11-20T19:05:14.610Z,55.15
2022-11-20T19:07:41.761Z,57.78
2022-11-20T19:10:09.001Z,57.31
2022-11-20T19:12:35.951Z,55.24
2022-11-20T19:15:03.315Z,54.36
2022-11-20T19:17:30.161Z,54.66
2022-11-20T19:19:56.866Z,55.01
2022-11-20T19:22:23.741Z,57.42
2022-11-20T19:24:50.732Z,59.74
2022-11-20T19:27:17.586Z,58.97
2022-11-20T19:29:45.297Z,59.04
2022-11-20T19:32:12.161Z,57.90
2022-11-20T19:34:38.812Z,57.06
2022-11-20T19:37:05.692Z,56.59
2022-11-20T19:39:32.590Z,58.33
2022-11-20T19:41:59.447Z,58.98
2022-11-20T19:44:26.115Z,57.74
2022-11-20T19:46:53.072Z,59.28
2022-11-20T19:49:20.095Z,59.47
2022-11-20T19:51:48.886Z,59.26
2022-11-20T19:54:16.935Z,60.68
2022-11-20T19:56:45.543Z,58.50
2022-11-20T19:59:13.155Z,58.18
2022-11-20T20:01:40.107Z,57.31
2022-11-20T20:04:07.302Z,57.16
2022-11-20T20:06:35.966Z,57.74
2022-11-20T20:09:10.408Z,57.43
2022-11-20T20:11:37.570Z,55.02
2022-11-20T20:14:06.413Z,52.73
2022-11-20T20:16:34.464Z,54.01
2022-11-20T20:19:02.940Z,54.82
2022-11-20T20:21:31.008Z,56.08
2022-11-20T20:23:59.560Z,59.11
2022-11-20T20:26:30.261Z,58.09
2022-11-20T20:28:57.159Z,59.47
2022-11-20T20:31:26.582Z,59.37
2022-11-20T20:33:53.913Z,59.34
2022-11-20T20:36:22.180Z,60.11
2022-11-20T20:38:52.637Z,58.51
2022-11-20T20:41:20.331Z,56.96
2022-11-20T20:44:05.898Z,56.69
2022-11-20T20:46:32.925Z,56.95
2022-11-20T20:48:59.986Z,59.86
2022-11-20T20:51:26.840Z,58.02
2022-11-20T20:53:54.045Z,59.10
2022-11-20T20:56:21.468Z,58.82
2022-11-20T20:58:48.370Z,56.87
2022-11-20T21:01:17.509Z,58.11
2022-11-20T21:03:44.643Z,60.65
2022-11-20T21:06:12.503Z,60.57
2022-11-20T21:08:41.129Z,59.22
2022-11-20T21:11:16.314Z,63.89
2022-11-20T21:13:44.865Z,65.79
2022-11-20T21:16:13.305Z,65.87
2022-11-20T21:18:40.178Z,64.24
2022-11-20T21:21:27.165Z,72.32
2022-11-20T21:23:54.231Z,70.02
2022-11-20T21:26:21.827Z,69.03
2022-11-20T21:28:50.198Z,67.46
2022-11-20T21:31:22.685Z,64.72
2022-11-20T21:33:51.101Z,64.41
2022-11-20T21:36:20.032Z,60.97
2022-11-20T21:38:47.787Z,63.39
2022-11-20T21:41:15.351Z,62.95
2022-11-20T21:43:45.724Z,62.44
2022-11-20T21:46:14.497Z,61.80
2022-11-20T21:48:42.559Z,60.86
2022-11-20T21:51:14.640Z,60.21
2022-11-20T21:53:42.036Z,59.64
2022-11-20T21:56:10.196Z,57.24
2022-11-20T21:58:38.239Z,58.55
2022-11-20T22:01:38.175Z,59.41
2022-11-20T22:04:05.501Z,60.08
2022-11-20T22:06:33.983Z,56.31
2022-11-20T22:09:03.023Z,56.93
2022-11-20T22:11:30.104Z,57.40
2022-11-20T22:14:15.623Z,57.29
2022-11-20T22:16:42.516Z,56.78
2022-11-20T22:19:09.553Z,56.46
2022-11-20T22:21:39.812Z,55.86
2022-11-20T22:24:06.787Z,55.77
2022-11-20T22:26:40.227Z,55.59
2022-11-20T22:29:14.076Z,55.06
2022-11-20T22:31:40.998Z,55.15
2022-11-20T22:34:11.378Z,52.26
2022-11-20T22:36:38.737Z,50.65
2022-11-20T22:39:06.080Z,51.67
2022-11-20T22:41:33.700Z,52.64
2022-11-20T22:44:06.680Z,53.30
2022-11-20T22:46:35.084Z,54.18
2022-11-20T22:49:04.172Z,56.71
2022-11-20T22:51:33.757Z,56.83
2022-11-20T22:54:01.250Z,55.38
2022-11-20T22:56:28.128Z,54.67
2022-11-20T22:58:55.264Z,52.24
2022-11-20T23:01:24.138Z,51.20
2022-11-20T23:03:53.171Z,53.17
2022-11-20T23:06:20.976Z,54.19
2022-11-20T23:08:48.542Z,55.70
2022-11-20T23:11:17.650Z,55.95
2022-11-20T23:13:45.200Z,54.57
2022-11-20T23:16:16.323Z,52.52
2022-11-20T23:18:44.251Z,51.84
2022-11-20T23:21:12.236Z,52.96
2022-11-20T23:23:39.450Z,54.73
2022-11-20T23:26:09.403Z,55.84
2022-11-20T23:28:36.741Z,55.95
2022-11-20T23:31:04.507Z,57.96
2022-11-20T23:33:31.686Z,57.53
2022-11-20T23:35:58.557Z,60.09
2022-11-20T23:38:25.448Z,62.65
2022-11-20T23:40:52.813Z,63.23
2022-11-20T23:43:21.535Z,66.93
2022-11-20T23:45:50.319Z,62.62
2022-11-20T23:48:17.415Z,64.47
2022-11-20T23:50:44.563Z,62.38
2022-11-20T23:53:12.227Z,62.60
2022-11-20T23:55:39.102Z,62.83
2022-11-20T23:58:06.002Z,62.87
